createdAt,value
2022-09-14T00:00:12.991Z,13.70
2022-09-14T00:02:41.802Z,13.70
2022-09-14T00:05:10.862Z,13.70
2022-09-14T00:07:39.299Z,13.60
2022-09-14T00:10:09.050Z,13.50
2022-09-14T00:12:37.551Z,13.30
2022-09-14T00:15:07.518Z,13.10
2022-09-14T00:17:37.425Z,13.00
2022-09-14T00:20:18.096Z,13.00
2022-09-14T00:22:46.573Z,12.90
2022-09-14T00:25:15.195Z,12.90
2022-09-14T00:27:43.669Z,12.80
2022-09-14T00:30:21.315Z,12.70
2022-09-14T00:32:51.875Z,12.60
2022-09-14T00:35:20.661Z,12.50
2022-09-14T00:37:52.552Z,12.50
2022-09-14T00:40:21.333Z,12.50
2022-09-14T00:42:49.884Z,12.50
2022-09-14T00:45:22.258Z,12.40
2022-09-14T00:47:56.798Z,12.40
2022-09-14T00:50:26.015Z,12.30
2022-09-14T00:52:55.517Z,12.20
2022-09-14T00:55:25.228Z,12.10
2022-09-14T00:57:55.511Z,12.10
2022-09-14T01:00:27.038Z,12.00
2022-09-14T01:02:57.667Z,12.00
2022-09-14T01:05:46.260Z,12.00
2022-09-14T01:08:42.083Z,12.00
2022-09-14T01:11:51.511Z,12.00
2022-09-14T01:14:35.265Z,12.00
2022-09-14T01:17:13.629Z,12.00
2022-09-14T01:20:27.073Z,12.00
2022-09-14T01:23:10.140Z,11.90
2022-09-14T01:26:34.382Z,11.90
2022-09-14T01:29:13.464Z,11.90
2022-09-14T01:31:52.201Z,11.80
2022-09-14T01:34:32.793Z,11.80
2022-09-14T01:37:13.063Z,11.70
2022-09-14T01:39:47.296Z,11.60
2022-09-14T01:42:43.528Z,11.60
2022-09-14T01:45:19.285Z,11.50
2022-09-14T01:47:55.412Z,11.50
2022-09-14T01:50:28.400Z,11.40
2022-09-14T01:53:04.181Z,11.40
2022-09-14T01:55:41.211Z,11.40
2022-09-14T01:58:15.797Z,11.30
2022-09-14T02:00:48.762Z,11.30
2022-09-14T02:03:23.326Z,11.20
2022-09-14T02:06:00.700Z,11.20
2022-09-14T02:08:33.267Z,11.10
2022-09-14T02:11:02.935Z,11.10
2022-09-14T02:13:31.987Z,11.10
2022-09-14T02:16:02.328Z,11.10
2022-09-14T02:18:31.191Z,11.00
2022-09-14T02:21:06.117Z,11.00
2022-09-14T02:23:37.461Z,10.90
2022-09-14T02:26:06.767Z,10.90
2022-09-14T02:28:35.490Z,10.90
2022-09-14T02:31:21.588Z,10.80
2022-09-14T02:34:03.264Z,10.80
2022-09-14T02:36:48.250Z,10.80
2022-09-14T02:39:28.135Z,10.70
2022-09-14T02:42:09.767Z,10.70
2022-09-14T02:44:58.841Z,10.70
2022-09-14T02:47:44.805Z,10.60
2022-09-14T02:50:27.950Z,10.60
2022-09-14T02:53:10.737Z,10.50
2022-09-14T02:55:46.323Z,10.50
2022-09-14T02:58:16.327Z,10.50
2022-09-14T03:01:12.847Z,10.40
2022-09-14T03:03:43.069Z,10.40
2022-09-14T03:06:11.823Z,10.30
2022-09-14T03:08:41.991Z,10.30
2022-09-14T03:11:10.861Z,10.30
2022-09-14T03:13:40.180Z,10.20
2022-09-14T03:16:10.422Z,10.20
2022-09-14T03:18:40.279Z,10.20
2022-09-14T03:21:13.652Z,10.20
2022-09-14T03:23:45.038Z,10.10
2022-09-14T03:26:16.624Z,10.10
2022-09-14T03:28:45.724Z,10.10
2022-09-14T03:31:14.702Z,10.10
2022-09-14T03:33:43.819Z,10.00
2022-09-14T03:36:40.195Z,9.90
2022-09-14T03:39:09.416Z,9.90
2022-09-14T03:41:38.196Z,9.90
2022-09-14T03:44:07.059Z,9.80
2022-09-14T03:46:36.068Z,9.80
2022-09-14T03:49:05.056Z,9.80
2022-09-14T03:51:36.003Z,9.80
2022-09-14T03:54:06.619Z,9.80
2022-09-14T03:56:35.952Z,9.70
2022-09-14T03:59:05.277Z,9.70
2022-09-14T04:01:35.019Z,9.70
2022-09-14T04:04:04.317Z,9.70
2022-09-14T04:07:07.864Z,9.60
2022-09-14T04:09:38.985Z,9.60
2022-09-14T04:12:08.794Z,9.60
2022-09-14T04:14:37.956Z,9.70
2022-09-14T04:17:07.158Z,9.60
2022-09-14T04:19:37.777Z,9.50
2022-09-14T04:22:06.690Z,9.60
2022-09-14T04:24:36.493Z,9.50
2022-09-14T04:27:06.737Z,9.60
2022-09-14T04:29:36.026Z,9.60
2022-09-14T04:32:05.471Z,9.60
2022-09-14T04:34:34.150Z,9.70
2022-09-14T04:37:02.960Z,9.90
2022-09-14T04:39:31.650Z,10.10
2022-09-14T04:42:00.136Z,10.10
2022-09-14T04:44:29.957Z,10.20
2022-09-14T04:46:58.539Z,10.40
2022-09-14T04:49:27.130Z,10.50
2022-09-14T04:51:55.592Z,10.50
2022-09-14T04:54:24.069Z,10.70
2022-09-14T04:56:52.591Z,10.80
2022-09-14T04:59:21.121Z,11.00
2022-09-14T05:01:52.219Z,11.10
2022-09-14T05:04:20.717Z,11.20
2022-09-14T05:06:50.210Z,11.40
2022-09-14T05:09:20.105Z,11.60
2022-09-14T05:11:49.697Z,11.80
2022-09-14T05:14:18.230Z,12.00
2022-09-14T05:16:48.027Z,12.20
2022-09-14T05:19:19.323Z,12.40
2022-09-14T05:21:48.572Z,12.40
2022-09-14T05:24:19.714Z,12.40
2022-09-14T05:26:48.796Z,12.60
2022-09-14T05:29:20.890Z,12.60
2022-09-14T05:31:49.517Z,12.70
2022-09-14T05:34:19.555Z,12.80
2022-09-14T05:36:48.066Z,13.00
2022-09-14T05:39:21.035Z,13.10
2022-09-14T05:41:51.970Z,13.30
2022-09-14T05:44:20.473Z,13.40
2022-09-14T05:46:48.990Z,13.60
2022-09-14T05:49:18.982Z,13.70
2022-09-14T05:51:47.735Z,13.80
2022-09-14T05:54:16.202Z,13.70
2022-09-14T05:56:44.647Z,13.60
2022-09-14T05:59:13.288Z,13.70
2022-09-14T06:01:41.855Z,13.80
2022-09-14T06:04:12.829Z,14.10
2022-09-14T06:06:52.103Z,14.30
2022-09-14T06:09:33.247Z,14.50
2022-09-14T06:12:01.928Z,14.70
2022-09-14T06:14:30.674Z,15.00
2022-09-14T06:17:00.791Z,15.10
2022-09-14T06:19:29.270Z,15.40
2022-09-14T06:21:59.241Z,15.60
2022-09-14T06:24:27.694Z,15.70
2022-09-14T06:26:56.156Z,15.70
2022-09-14T06:29:24.683Z,15.60
2022-09-14T06:31:55.172Z,15.70
2022-09-14T06:34:23.595Z,15.90
2022-09-14T06:36:52.037Z,16.10
2022-09-14T06:39:21.845Z,16.10
2022-09-14T06:41:51.982Z,16.20
2022-09-14T06:44:20.976Z,16.30
2022-09-14T06:46:49.455Z,16.50
2022-09-14T06:49:20.810Z,16.60
2022-09-14T07:29:02.185Z,17.60
2022-09-14T07:31:33.968Z,18.50
2022-09-14T07:34:05.266Z,18.50
2022-09-14T07:36:37.060Z,18.80
2022-09-14T07:39:07.985Z,19.00
2022-09-14T07:41:37.463Z,19.00
2022-09-14T07:44:09.518Z,19.10
2022-09-14T07:46:41.221Z,19.30
2022-09-14T07:49:12.040Z,19.50
2022-09-14T07:51:41.357Z,19.60
2022-09-14T07:54:14.190Z,19.60
2022-09-14T07:56:43.519Z,19.90
2022-09-14T08:02:07.403Z,20.40
2022-09-14T08:04:36.859Z,20.50
2022-09-14T08:07:05.780Z,20.70
2022-09-14T08:09:34.536Z,20.70
2022-09-14T08:12:06.320Z,20.90
2022-09-14T08:14:37.039Z,21.10
2022-09-14T08:17:05.981Z,21.40
2022-09-14T08:19:35.361Z,21.40
2022-09-14T08:22:04.550Z,21.40
2022-09-14T08:24:33.576Z,21.50
2022-09-14T08:27:02.510Z,21.70
2022-09-14T08:29:31.249Z,21.90
2022-09-14T08:32:01.641Z,22.00
2022-09-14T08:34:33.035Z,22.20
2022-09-14T08:37:02.160Z,22.30
2022-09-14T08:39:31.025Z,22.30
2022-09-14T08:42:02.023Z,22.30
2022-09-14T08:44:37.044Z,22.10
2022-09-14T08:47:13.864Z,22.20
2022-09-14T08:49:49.892Z,22.30
2022-09-14T08:52:26.848Z,22.50
2022-09-14T08:54:57.939Z,22.70
2022-09-14T08:57:35.805Z,22.90
2022-09-14T09:00:12.495Z,22.90
2022-09-14T09:03:31.472Z,23.00
2022-09-14T09:06:16.218Z,23.00
2022-09-14T09:08:58.802Z,23.30
2022-09-14T09:11:37.624Z,23.30
2022-09-14T09:14:20.310Z,23.50
2022-09-14T09:16:55.276Z,23.60
2022-09-14T09:19:32.093Z,23.60
2022-09-14T09:22:05.073Z,23.60
2022-09-14T09:24:41.633Z,23.80
2022-09-14T09:27:13.388Z,24.00
2022-09-14T09:29:43.168Z,24.00
2022-09-14T09:32:18.456Z,24.00
2022-09-14T09:34:49.174Z,24.00
2022-09-14T09:37:20.926Z,24.10
2022-09-14T09:39:50.557Z,24.20
2022-09-14T09:42:25.046Z,24.20
2022-09-14T09:45:04.026Z,24.30
2022-09-14T09:47:37.100Z,24.30
2022-09-14T09:50:22.021Z,24.40
2022-09-14T09:52:53.946Z,24.40
2022-09-14T09:55:26.637Z,24.40
2022-09-14T09:57:56.216Z,24.40
2022-09-14T10:00:28.196Z,24.60
2022-09-14T10:02:58.297Z,24.60
2022-09-14T10:05:32.452Z,24.70
2022-09-14T10:08:06.918Z,24.90
2022-09-14T10:10:45.074Z,25.10
2022-09-14T10:13:29.413Z,25.30
2022-09-14T10:16:23.626Z,25.30
2022-09-14T10:18:54.751Z,25.20
2022-09-14T10:21:27.131Z,25.30
2022-09-14T10:24:08.612Z,25.40
2022-09-14T10:26:38.624Z,25.50
2022-09-14T10:29:41.479Z,25.60
2022-09-14T10:32:23.930Z,25.60
2022-09-14T10:34:52.631Z,25.60
2022-09-14T10:37:47.462Z,25.70
2022-09-14T10:40:21.170Z,25.70
2022-09-14T10:43:10.563Z,25.70
2022-09-14T10:45:44.333Z,25.80
2022-09-14T10:48:58.447Z,25.80
2022-09-14T10:51:44.757Z,25.80
2022-09-14T10:54:45.654Z,25.80
2022-09-14T10:57:26.603Z,25.90
2022-09-14T11:00:02.068Z,26.00
2022-09-14T11:03:15.562Z,26.00
2022-09-14T11:05:58.264Z,26.00
2022-09-14T11:08:34.069Z,26.00
2022-09-14T11:11:31.523Z,26.20
2022-09-14T11:14:21.212Z,26.20
2022-09-14T11:56:26.908Z,26.60
2022-09-14T11:58:59.383Z,27.20
2022-09-14T12:01:38.140Z,27.20
2022-09-14T12:04:16.991Z,27.30
2022-09-14T12:06:58.465Z,27.30
2022-09-14T12:09:55.502Z,27.30
2022-09-14T12:12:36.535Z,27.30
2022-09-14T12:15:21.939Z,27.30
2022-09-14T12:17:51.859Z,27.40
2022-09-14T12:20:39.140Z,27.50
2022-09-14T12:23:32.129Z,27.60
2022-09-14T12:26:16.204Z,27.70
2022-09-14T12:28:50.630Z,27.70
2022-09-14T12:32:06.164Z,27.80
2022-09-14T12:34:35.409Z,27.70
2022-09-14T12:37:37.307Z,27.50
2022-09-14T12:40:39.260Z,27.60
2022-09-14T12:43:53.029Z,27.70
2022-09-14T12:46:42.275Z,27.90
2022-09-14T12:49:36.869Z,27.80
2022-09-14T12:52:29.064Z,28.00
2022-09-14T12:55:19.380Z,28.10
2022-09-14T12:57:58.051Z,28.20
2022-09-14T13:00:29.050Z,28.20
2022-09-14T13:03:35.079Z,28.30
2022-09-14T13:06:05.383Z,28.20
2022-09-14T13:08:34.649Z,28.10
2022-09-14T13:11:03.343Z,28.20
2022-09-14T13:13:34.971Z,28.30
2022-09-14T13:16:08.617Z,28.30
2022-09-14T13:18:40.034Z,28.20
2022-09-14T13:21:22.024Z,28.30
2022-09-14T13:23:51.007Z,28.20
2022-09-14T13:26:34.398Z,28.30
2022-09-14T13:29:04.254Z,28.20
2022-09-14T13:31:36.942Z,28.20
2022-09-14T13:34:08.858Z,28.30
2022-09-14T13:36:44.105Z,28.30
2022-09-14T13:39:28.835Z,28.30
2022-09-14T13:41:59.316Z,28.20
2022-09-14T13:44:55.056Z,28.20
2022-09-14T13:47:27.034Z,28.20
2022-09-14T13:49:58.443Z,28.20
2022-09-14T13:55:30.278Z,28.20
2022-09-14T13:58:21.626Z,28.30
2022-09-14T14:00:55.475Z,28.20
2022-09-14T14:03:35.383Z,28.10
2022-09-14T14:06:23.922Z,28.20
2022-09-14T14:09:01.426Z,28.30
2022-09-14T14:11:36.395Z,28.20
2022-09-14T14:14:22.547Z,28.20
2022-09-14T14:17:25.589Z,28.10
2022-09-14T14:19:56.496Z,28.10
2022-09-14T14:22:33.243Z,28.00
2022-09-14T14:25:18.845Z,28.00
2022-09-14T14:27:49.549Z,27.90
2022-09-14T14:30:22.136Z,27.90
2022-09-14T14:32:52.678Z,27.90
2022-09-14T14:35:24.449Z,27.90
2022-09-14T14:37:54.672Z,27.80
2022-09-14T14:40:24.098Z,27.80
2022-09-14T14:42:54.217Z,27.80
2022-09-14T14:45:26.922Z,27.80
2022-09-14T14:47:57.335Z,27.70
2022-09-14T14:50:30.193Z,27.70
2022-09-14T14:53:00.745Z,27.70
2022-09-14T14:55:31.868Z,27.70
2022-09-14T14:58:04.604Z,27.70
2022-09-14T15:00:36.790Z,27.70
2022-09-14T15:03:06.275Z,27.60
2022-09-14T15:05:35.095Z,27.60
2022-09-14T15:08:05.236Z,27.50
2022-09-14T15:10:34.427Z,27.40
2022-09-14T15:13:02.937Z,27.30
2022-09-14T15:15:31.508Z,27.20
2022-09-14T15:18:00.302Z,27.20
2022-09-14T15:20:29.276Z,27.20
2022-09-14T15:22:58.419Z,27.20
2022-09-14T15:25:28.469Z,27.20
2022-09-14T15:27:57.085Z,27.20
2022-09-14T15:30:25.977Z,27.10
2022-09-14T15:32:54.643Z,27.00
2022-09-14T15:35:23.366Z,27.00
2022-09-14T15:37:51.985Z,26.90
2022-09-14T15:40:20.552Z,26.80
2022-09-14T15:42:50.721Z,26.80
2022-09-14T15:45:19.727Z,26.70
2022-09-14T15:47:48.422Z,26.60
2022-09-14T15:50:17.545Z,26.50
2022-09-14T15:52:46.060Z,26.40
2022-09-14T15:55:14.914Z,26.30
2022-09-14T15:57:43.593Z,26.20
2022-09-14T16:00:15.829Z,26.00
2022-09-14T16:02:44.467Z,25.90
2022-09-14T16:05:14.691Z,25.70
2022-09-14T16:07:43.524Z,25.60
2022-09-14T16:10:12.196Z,25.40
2022-09-14T16:12:40.931Z,25.30
2022-09-14T16:15:11.099Z,25.10
2022-09-14T16:17:43.416Z,24.90
2022-09-14T16:20:12.236Z,24.80
2022-09-14T16:22:41.143Z,24.60
2022-09-14T16:25:09.844Z,24.40
2022-09-14T16:27:38.562Z,24.30
2022-09-14T16:30:09.369Z,24.10
2022-09-14T16:32:37.968Z,24.00
2022-09-14T16:35:32.965Z,23.80
2022-09-14T16:38:01.547Z,23.60
2022-09-14T16:40:31.722Z,23.50
2022-09-14T16:43:00.403Z,23.30
2022-09-14T16:45:29.159Z,23.20
2022-09-14T16:47:58.019Z,23.10
2022-09-14T16:50:26.779Z,22.90
2022-09-14T16:52:57.065Z,22.80
2022-09-14T16:55:25.723Z,22.60
2022-09-14T16:57:54.212Z,22.50
2022-09-14T17:00:22.840Z,22.30
2022-09-14T17:02:53.447Z,22.20
2022-09-14T17:05:22.072Z,22.00
2022-09-14T17:07:58.051Z,21.90
2022-09-14T17:10:26.731Z,21.70
2022-09-14T17:12:55.417Z,21.50
2022-09-14T17:15:26.996Z,21.50
2022-09-14T17:17:57.535Z,21.30
2022-09-14T17:20:26.093Z,21.30
2022-09-14T17:22:54.906Z,21.10
2022-09-14T17:25:25.331Z,21.00
2022-09-14T17:27:54.941Z,20.80
2022-09-14T17:30:23.755Z,20.70
2022-09-14T17:32:52.366Z,20.70
2022-09-14T17:35:47.930Z,20.70
2022-09-14T17:38:17.266Z,20.80
2022-09-14T17:40:47.993Z,20.80
2022-09-14T17:43:19.243Z,20.90
2022-09-14T17:45:55.200Z,20.80
2022-09-14T17:48:25.632Z,20.90
2022-09-14T17:50:54.405Z,20.90
2022-09-14T17:53:23.908Z,20.90
2022-09-14T17:55:54.195Z,20.80
2022-09-14T17:58:22.941Z,20.80
2022-09-14T18:00:51.535Z,20.80
2022-09-14T18:03:20.311Z,20.80
2022-09-14T18:05:56.635Z,20.80
2022-09-14T18:08:25.393Z,20.80
2022-09-14T18:10:55.747Z,20.90
2022-09-14T18:13:33.908Z,21.10
2022-09-14T18:16:03.123Z,21.40
2022-09-14T18:18:32.103Z,21.60
2022-09-14T18:21:01.463Z,21.80
2022-09-14T18:23:34.680Z,21.90
2022-09-14T18:26:06.766Z,22.00
2022-09-14T18:28:37.364Z,22.10
2022-09-14T18:31:08.511Z,22.10
2022-09-14T18:33:37.873Z,22.20
2022-09-14T18:36:08.346Z,22.10
2022-09-14T18:38:37.327Z,22.10
2022-09-14T18:41:09.758Z,22.20
2022-09-14T18:43:39.288Z,22.20
2022-09-14T18:46:09.179Z,22.30
2022-09-14T18:48:38.825Z,22.40
2022-09-14T18:51:09.006Z,22.40
2022-09-14T18:53:38.147Z,22.40
2022-09-14T18:56:12.185Z,22.40
2022-09-14T18:58:43.969Z,22.40
2022-09-14T19:01:14.071Z,22.40
2022-09-14T19:03:44.514Z,22.40
2022-09-14T19:06:17.504Z,22.30
2022-09-14T19:08:47.010Z,22.20
2022-09-14T19:11:20.404Z,22.20
2022-09-14T19:13:51.143Z,22.10
2022-09-14T19:16:21.278Z,22.00
2022-09-14T19:18:51.167Z,21.90
2022-09-14T19:21:23.851Z,21.80
2022-09-14T19:24:00.779Z,21.70
2022-09-14T19:26:33.806Z,21.60
2022-09-14T19:29:03.933Z,21.50
2022-09-14T19:31:33.662Z,21.40
2022-09-14T19:34:04.817Z,21.40
2022-09-14T19:36:35.317Z,21.30
2022-09-14T19:39:05.883Z,21.30
2022-09-14T19:41:37.317Z,21.40
2022-09-14T19:44:08.340Z,21.50
2022-09-14T19:46:39.734Z,21.50
2022-09-14T19:49:11.273Z,21.50
2022-09-14T19:51:39.963Z,21.60
2022-09-14T19:54:08.906Z,21.70
2022-09-14T19:56:40.140Z,21.70
2022-09-14T19:59:09.900Z,21.70
2022-09-14T20:01:41.144Z,21.50
2022-09-14T20:04:11.847Z,21.40
2022-09-14T20:06:44.677Z,21.40
2022-09-14T20:09:16.599Z,21.30
2022-09-14T20:11:49.405Z,21.10
2022-09-14T20:14:21.579Z,21.00
2022-09-14T20:16:53.843Z,20.80
2022-09-14T20:19:47.829Z,20.70
2022-09-14T20:22:17.041Z,20.50
2022-09-14T20:24:45.934Z,20.50
2022-09-14T20:27:15.880Z,20.30
2022-09-14T20:29:44.583Z,20.20
2022-09-14T20:32:16.278Z,20.10
2022-09-14T20:34:47.390Z,20.00
2022-09-14T20:37:16.199Z,19.90
2022-09-14T20:39:45.096Z,19.80
2022-09-14T20:42:15.506Z,19.70
2022-09-14T20:44:44.548Z,19.70
2022-09-14T20:47:13.768Z,19.60
2022-09-14T20:49:42.331Z,19.40
2022-09-14T20:52:10.993Z,19.40
2022-09-14T20:54:39.734Z,19.20
2022-09-14T20:57:08.581Z,19.20
2022-09-14T20:59:38.978Z,19.30
2022-09-14T21:02:08.551Z,19.60
2022-09-14T21:04:37.618Z,20.00
2022-09-14T21:07:21.654Z,20.30
2022-09-14T21:09:50.633Z,20.70
2022-09-14T21:12:25.335Z,21.00
2022-09-14T21:14:55.396Z,21.20
2022-09-14T21:17:24.334Z,21.30
2022-09-14T21:19:53.055Z,21.40
2022-09-14T21:22:21.641Z,21.40
2022-09-14T21:24:50.319Z,21.60
2022-09-14T21:27:19.190Z,21.60
2022-09-14T21:29:48.317Z,21.70
2022-09-14T21:32:18.535Z,21.80
2022-09-14T21:34:47.183Z,21.90
2022-09-14T21:37:15.891Z,21.90
2022-09-14T21:39:44.997Z,21.90
2022-09-14T21:42:13.597Z,21.90
2022-09-14T21:44:42.355Z,21.80
2022-09-14T21:47:11.104Z,21.80
2022-09-14T21:49:41.433Z,21.80
2022-09-14T21:52:15.216Z,21.90
2022-09-14T21:54:43.691Z,22.00
2022-09-14T21:57:12.358Z,22.00
2022-09-14T21:59:41.368Z,22.10
2022-09-14T22:02:10.124Z,22.10
2022-09-14T22:04:40.112Z,21.90
2022-09-14T22:07:09.199Z,21.60
2022-09-14T22:09:38.025Z,21.40
2022-09-14T22:12:07.143Z,21.10
2022-09-14T22:15:00.227Z,20.90
2022-09-14T22:17:29.254Z,20.70
2022-09-14T22:20:00.769Z,20.50
2022-09-14T22:23:03.357Z,20.30
2022-09-14T22:25:33.151Z,20.10
2022-09-14T22:28:01.798Z,20.00
2022-09-14T22:30:30.676Z,19.80
2022-09-14T22:32:59.590Z,19.60
2022-09-14T22:35:29.882Z,19.40
2022-09-14T22:37:58.680Z,19.30
2022-09-14T22:40:27.458Z,19.20
2022-09-14T22:42:56.010Z,19.00
2022-09-14T22:45:24.534Z,18.90
2022-09-14T22:47:53.243Z,18.90
2022-09-14T22:50:21.760Z,18.80
2022-09-14T22:52:52.316Z,18.80
2022-09-14T22:55:21.595Z,18.80
2022-09-14T22:57:51.253Z,18.80
2022-09-14T23:00:20.366Z,18.70
2022-09-14T23:02:49.228Z,18.70
2022-09-14T23:05:19.777Z,18.60
2022-09-14T23:07:48.506Z,18.60
2022-09-14T23:10:18.828Z,18.50
2022-09-14T23:12:47.563Z,18.40
2022-09-14T23:15:16.598Z,18.30
2022-09-14T23:17:49.982Z,18.30
2022-09-14T23:20:46.508Z,18.20
2022-09-14T23:23:15.236Z,18.20
2022-09-14T23:25:45.772Z,18.20
2022-09-14T23:28:14.436Z,18.10
2022-09-14T23:30:43.351Z,18.10
2022-09-14T23:33:12.154Z,18.00
2022-09-14T23:35:40.852Z,18.00
2022-09-14T23:38:09.812Z,17.90
2022-09-14T23:40:38.569Z,17.80
2022-09-14T23:43:08.526Z,17.80
2022-09-14T23:45:37.522Z,17.70
2022-09-14T23:48:06.444Z,17.60
2022-09-14T23:50:35.259Z,17.60
2022-09-14T23:53:03.801Z,17.50
2022-09-14T23:55:32.703Z,17.40
2022-09-14T23:58:01.511Z,17.40
